Time;durP1;ratioP1;P1;durP2;ratioP2;P2;SDS_P1;SDS_P2;PMS_P1;PMS_P2;Temp;Humidity;BMP_temperature;BMP_pressure;BME280_temperature;BME280_humidity;BME280_pressure;Samples;Min_cycle;Max_cycle;Signal;HPM_P1;HPM_P2
2022/10/13 00:02:34;;;;;;;18.00;10.53;;;11.60;99.90;;;;;;4179894;28;20037;-67
2022/10/13 00:04:35;;;;;;;18.73;11.30;;;11.60;99.90;;;;;;4179072;28;20094;-65
2022/10/13 00:06:36;;;;;;;18.77;11.67;;;11.60;99.90;;;;;;4179730;28;20033;-66
2022/10/13 00:08:38;;;;;;;20.93;12.20;;;11.60;99.90;;;;;;4179853;28;20017;-63
2022/10/13 00:10:40;;;;;;;23.40;13.13;;;11.60;99.90;;;;;;4180031;28;20040;-64
2022/10/13 00:12:41;;;;;;;23.10;13.13;;;11.50;99.90;;;;;;4180475;28;20090;-66
2022/10/13 00:14:42;;;;;;;20.77;13.17;;;11.50;99.90;;;;;;4178756;28;20064;-67
2022/10/13 00:16:43;;;;;;;24.73;13.53;;;11.50;99.90;;;;;;4179494;28;20040;-63
2022/10/13 00:18:45;;;;;;;25.80;14.37;;;11.50;99.90;;;;;;4179222;28;20086;-64
2022/10/13 00:20:48;;;;;;;23.83;13.47;;;11.50;99.90;;;;;;4179472;28;20091;-64
2022/10/13 00:22:49;;;;;;;23.47;13.83;;;11.40;99.90;;;;;;4179045;28;20119;-62
2022/10/13 00:24:51;;;;;;;28.40;13.97;;;11.40;99.90;;;;;;4179664;28;20435;-67
2022/10/13 00:26:52;;;;;;;23.90;13.23;;;11.40;99.90;;;;;;4179064;28;20036;-63
2022/10/13 00:28:55;;;;;;;25.47;14.40;;;11.40;99.90;;;;;;4179537;28;20032;-64
2022/10/13 00:30:56;;;;;;;20.80;13.00;;;11.30;99.90;;;;;;4179198;28;20033;-65
2022/10/13 00:32:57;;;;;;;22.77;14.17;;;11.30;99.90;;;;;;4179943;28;20451;-64
2022/10/13 00:34:58;;;;;;;22.77;13.70;;;11.30;99.90;;;;;;4178851;28;20037;-66
2022/10/13 00:36:59;;;;;;;25.23;13.37;;;11.30;99.90;;;;;;4179970;28;20033;-66
2022/10/13 00:39:00;;;;;;;25.17;13.87;;;11.30;99.90;;;;;;4178997;28;20021;-64
2022/10/13 00:41:02;;;;;;;20.73;13.70;;;11.30;99.90;;;;;;4178865;28;20484;-63
2022/10/13 00:43:05;;;;;;;22.20;13.70;;;11.30;99.90;;;;;;4173559;28;20057;-65
2022/10/13 00:45:28;;;;;;;20.73;14.00;;;11.30;99.90;;;;;;4178397;28;20041;-63
2022/10/13 00:47:43;;;;;;;24.67;14.27;;;11.30;99.90;;;;;;4162089;28;20064;-63
2022/10/13 00:49:45;;;;;;;25.73;14.23;;;11.20;99.90;;;;;;4163014;28;20075;-64
2022/10/13 00:51:49;;;;;;;21.87;13.93;;;11.20;99.90;;;;;;4162673;28;20029;-63
2022/10/13 00:53:51;;;;;;;22.93;13.27;;;11.20;99.90;;;;;;4161690;28;20041;-63
2022/10/13 00:55:54;;;;;;;21.70;13.43;;;11.10;99.90;;;;;;4162881;28;20022;-64
2022/10/13 00:57:59;;;;;;;23.77;13.37;;;11.10;99.90;;;;;;4162422;28;20486;-64
2022/10/13 01:00:02;;;;;;;22.90;14.03;;;11.10;99.90;;;;;;4175560;28;20041;-64
2022/10/13 01:02:03;;;;;;;25.93;13.63;;;11.10;99.90;;;;;;4160396;28;20072;-63
2022/10/13 01:04:05;;;;;;;25.07;13.90;;;11.20;99.90;;;;;;4179145;28;20493;-65
2022/10/13 01:06:07;;;;;;;19.77;12.97;;;11.10;99.90;;;;;;4177398;28;20033;-67
2022/10/13 01:08:09;;;;;;;24.87;12.40;;;11.10;99.90;;;;;;4179454;28;20408;-62
2022/10/13 01:10:11;;;;;;;18.40;11.53;;;11.20;99.90;;;;;;4177769;28;20048;-62
2022/10/13 01:13:10;;;;;;;23.60;13.63;;;11.10;99.90;;;;;;4179131;28;20817;-62
2022/10/13 01:15:14;;;;;;;19.07;12.67;;;11.20;99.90;;;;;;4138087;28;20033;-63
2022/10/13 01:17:24;;;;;;;21.10;13.70;;;11.20;99.90;;;;;;4178698;28;20044;-63
2022/10/13 01:19:47;;;;;;;20.43;13.23;;;11.20;99.90;;;;;;4177472;28;20468;-68
2022/10/13 01:22:12;;;;;;;20.63;14.07;;;11.20;99.90;;;;;;4161327;28;20037;-67
2022/10/13 01:24:38;;;;;;;17.83;12.73;;;11.20;99.90;;;;;;4178699;28;20041;-63
2022/10/13 01:26:48;;;;;;;18.60;12.37;;;11.20;99.90;;;;;;4177633;28;20063;-63
2022/10/13 01:29:13;;;;;;;18.67;11.88;;;11.20;99.90;;;;;;4179123;28;20075;-65
2022/10/13 01:31:23;;;;;;;25.27;13.60;;;11.30;99.90;;;;;;4159937;28;20037;-65
2022/10/13 01:33:41;;;;;;;23.98;12.77;;;11.30;99.90;;;;;;4178497;28;20033;-62
2022/10/13 01:36:01;;;;;;;21.03;12.13;;;11.30;99.90;;;;;;4176822;28;20102;-66
2022/10/13 01:38:38;;;;;;;20.50;11.90;;;11.30;99.90;;;;;;4162465;28;20080;-63
2022/10/13 01:40:39;;;;;;;20.40;11.93;;;11.30;99.90;;;;;;4161541;28;20088;-63
2022/10/13 01:42:53;;;;;;;20.17;11.50;;;11.30;99.90;;;;;;4163001;28;20037;-64
2022/10/13 01:44:59;;;;;;;19.97;12.23;;;11.30;99.90;;;;;;4174972;28;20075;-63
2022/10/13 01:47:02;;;;;;;20.30;11.87;;;11.30;99.90;;;;;;4177834;28;20045;-63
2022/10/13 01:49:10;;;;;;;17.80;11.57;;;11.30;99.90;;;;;;4177895;28;20025;-63
2022/10/13 01:51:17;;;;;;;18.07;10.77;;;11.30;99.90;;;;;;4178926;28;20362;-64
2022/10/13 01:53:19;;;;;;;19.77;11.67;;;11.30;99.90;;;;;;4177791;28;20037;-63
2022/10/13 01:55:20;;;;;;;21.73;11.87;;;11.30;99.90;;;;;;4179043;28;20036;-64
2022/10/13 01:57:34;;;;;;;16.80;11.63;;;11.30;99.90;;;;;;4177061;28;20041;-63
2022/10/13 01:59:37;;;;;;;20.90;12.73;;;11.30;99.90;;;;;;4178675;28;20476;-65
2022/10/13 02:01:56;;;;;;;20.33;13.47;;;11.30;99.90;;;;;;4176318;28;20121;-64
2022/10/13 02:04:18;;;;;;;18.67;11.63;;;11.20;99.90;;;;;;4178601;28;20052;-64
2022/10/13 02:06:21;;;;;;;25.43;12.50;;;11.30;99.90;;;;;;4177657;28;20079;-65
2022/10/13 02:08:22;;;;;;;25.13;12.80;;;11.20;99.90;;;;;;4178661;28;20029;-63
2022/10/13 02:10:33;;;;;;;21.10;13.10;;;11.30;99.90;;;;;;4177608;28;20029;-63
2022/10/13 02:12:57;;;;;;;21.87;14.33;;;11.20;99.90;;;;;;4179066;28;20025;-63
2022/10/13 02:15:01;;;;;;;23.77;13.47;;;11.30;99.90;;;;;;4176630;28;20057;-63
2022/10/13 02:17:04;;;;;;;20.80;13.87;;;11.30;99.90;;;;;;4178041;28;20040;-63
2022/10/13 02:19:08;;;;;;;28.13;13.93;;;11.30;99.90;;;;;;4176616;28;20041;-63
2022/10/13 02:21:09;;;;;;;19.70;11.80;;;11.30;99.90;;;;;;4177767;28;20091;-63
2022/10/13 02:23:16;;;;;;;21.53;13.27;;;11.30;99.90;;;;;;4177306;28;20428;-64
2022/10/13 02:25:17;;;;;;;24.47;11.93;;;11.30;99.90;;;;;;4177772;28;20040;-63
2022/10/13 02:27:18;;;;;;;20.33;11.60;;;11.30;99.90;;;;;;4177081;28;20025;-63
2022/10/13 02:29:20;;;;;;;19.47;11.90;;;11.40;99.90;;;;;;4178210;28;20029;-64
2022/10/13 02:31:21;;;;;;;20.67;11.30;;;11.40;99.90;;;;;;4177555;28;20033;-64
2022/10/13 02:33:22;;;;;;;15.13;11.30;;;11.40;99.90;;;;;;4177746;28;20481;-64
2022/10/13 02:35:24;;;;;;;20.00;11.23;;;11.40;99.90;;;;;;4177620;28;20025;-66
2022/10/13 02:37:25;;;;;;;16.20;11.57;;;11.50;99.90;;;;;;4177304;28;20429;-66
2022/10/13 02:39:27;;;;;;;18.50;10.97;;;11.50;99.90;;;;;;4178103;28;20013;-63
2022/10/13 02:41:28;;;;;;;16.07;11.07;;;11.50;99.90;;;;;;4176831;28;20071;-64
2022/10/13 02:43:29;;;;;;;18.60;10.93;;;11.50;99.90;;;;;;4177894;28;20563;-63
2022/10/13 02:45:30;;;;;;;20.37;11.73;;;11.50;99.90;;;;;;4176449;28;20063;-64
2022/10/13 02:47:31;;;;;;;18.87;11.50;;;11.50;99.90;;;;;;4177369;28;20605;-67
2022/10/13 02:49:32;;;;;;;20.97;11.03;;;11.50;99.90;;;;;;4175728;28;20091;-64
2022/10/13 02:51:33;;;;;;;21.00;11.13;;;11.60;99.90;;;;;;4177324;28;20057;-63
2022/10/13 02:53:35;;;;;;;15.30;10.93;;;11.60;99.90;;;;;;4177020;28;20033;-67
2022/10/13 02:55:36;;;;;;;18.43;10.47;;;11.60;99.90;;;;;;4178289;28;20032;-64
2022/10/13 02:57:37;;;;;;;19.93;11.27;;;11.60;99.90;;;;;;4177012;28;20025;-63
2022/10/13 02:59:38;;;;;;;17.83;11.80;;;11.60;99.90;;;;;;4177465;28;20025;-63
2022/10/13 03:01:41;;;;;;;19.90;12.63;;;11.60;99.90;;;;;;4177385;28;20424;-63
2022/10/13 03:03:42;;;;;;;21.77;12.17;;;11.60;99.90;;;;;;4177360;28;20053;-64
2022/10/13 03:05:44;;;;;;;20.13;12.77;;;11.60;99.90;;;;;;4177619;28;20029;-63
2022/10/13 03:07:45;;;;;;;22.10;12.30;;;11.60;99.90;;;;;;4177235;28;20412;-64
2022/10/13 03:09:46;;;;;;;24.17;13.50;;;11.60;99.90;;;;;;4176661;28;20045;-63
2022/10/13 03:11:47;;;;;;;16.57;11.70;;;11.70;99.90;;;;;;4176721;28;20093;-63
2022/10/13 03:13:48;;;;;;;21.13;13.07;;;11.70;99.90;;;;;;4178472;28;20037;-64
2022/10/13 03:15:49;;;;;;;22.23;11.73;;;11.70;99.90;;;;;;4176130;28;20033;-63
2022/10/13 03:17:51;;;;;;;19.43;11.80;;;11.70;99.90;;;;;;4178046;28;20075;-63
2022/10/13 03:19:52;;;;;;;17.00;11.47;;;11.70;99.90;;;;;;4159153;28;20041;-63
2022/10/13 03:21:53;;;;;;;17.03;11.47;;;11.70;99.90;;;;;;4177164;28;20037;-65
2022/10/13 03:23:54;;;;;;;16.37;10.67;;;11.70;99.90;;;;;;4176777;28;20478;-63
2022/10/13 03:25:55;;;;;;;19.80;11.63;;;11.70;99.90;;;;;;4177940;28;20017;-64
2022/10/13 03:27:56;;;;;;;16.07;10.10;;;11.80;99.90;;;;;;4175505;28;20037;-64
2022/10/13 03:29:58;;;;;;;18.93;11.40;;;11.80;99.90;;;;;;4176341;28;20062;-65
2022/10/13 03:31:59;;;;;;;15.63;10.77;;;11.80;99.90;;;;;;4176804;28;20044;-63
2022/10/13 03:34:00;;;;;;;14.47;9.93;;;11.80;99.90;;;;;;4177224;28;20083;-64
2022/10/13 03:36:04;;;;;;;15.93;11.80;;;11.80;99.90;;;;;;4176353;28;20155;-66
2022/10/13 03:38:05;;;;;;;17.73;11.50;;;11.80;99.90;;;;;;4155375;28;20440;-63
2022/10/13 03:40:07;;;;;;;18.50;11.87;;;11.80;99.90;;;;;;4177458;28;20435;-63
2022/10/13 03:42:09;;;;;;;21.13;11.53;;;11.80;99.90;;;;;;4176611;28;20029;-63
2022/10/13 03:44:12;;;;;;;23.53;13.60;;;11.70;99.90;;;;;;4177387;28;20053;-64
2022/10/13 03:46:15;;;;;;;22.80;13.50;;;11.70;99.90;;;;;;4176284;28;20436;-64
2022/10/13 03:48:16;;;;;;;27.47;18.57;;;11.60;99.90;;;;;;4177176;28;20045;-64
2022/10/13 03:50:18;;;;;;;37.97;25.27;;;11.60;99.90;;;;;;4175970;28;20757;-63
2022/10/13 03:52:19;;;;;;;28.83;18.27;;;11.50;99.90;;;;;;4158965;28;20084;-64
2022/10/13 03:54:20;;;;;;;33.73;25.07;;;11.50;99.90;;;;;;4160101;28;20174;-65
2022/10/13 03:56:24;;;;;;;33.63;21.60;;;11.50;99.90;;;;;;4161089;28;20088;-66
2022/10/13 03:58:27;;;;;;;32.50;19.23;;;11.50;99.90;;;;;;4160124;28;20026;-64
2022/10/13 04:00:29;;;;;;;38.40;23.50;;;11.40;99.90;;;;;;4158814;28;20053;-63
2022/10/13 04:02:30;;;;;;;52.03;24.60;;;11.40;99.90;;;;;;4178312;28;20087;-64
2022/10/13 04:04:31;;;;;;;34.83;21.47;;;11.40;99.90;;;;;;4178693;28;20079;-62
2022/10/13 04:06:32;;;;;;;36.10;21.27;;;11.50;99.90;;;;;;4178898;28;20100;-62
2022/10/13 04:08:33;;;;;;;36.17;23.33;;;11.50;99.90;;;;;;4179518;28;20029;-63
2022/10/13 04:10:35;;;;;;;40.10;28.33;;;11.50;99.90;;;;;;4179349;28;20024;-62
2022/10/13 04:12:36;;;;;;;43.17;29.13;;;11.60;99.90;;;;;;4179214;28;20036;-64
2022/10/13 04:14:37;;;;;;;41.00;27.97;;;11.60;99.90;;;;;;4180145;28;20033;-61
2022/10/13 04:16:39;;;;;;;38.87;25.07;;;11.60;99.90;;;;;;4174497;28;20119;-63
2022/10/13 04:18:40;;;;;;;29.30;21.10;;;11.60;99.90;;;;;;4162583;28;20064;-63
2022/10/13 04:20:41;;;;;;;26.67;17.23;;;11.70;99.90;;;;;;4161346;28;20049;-64
2022/10/13 04:22:43;;;;;;;25.00;15.50;;;11.70;99.90;;;;;;4163304;28;20029;-65
2022/10/13 04:24:44;;;;;;;23.40;15.13;;;11.60;99.90;;;;;;4162197;28;20096;-64
2022/10/13 04:26:45;;;;;;;27.50;14.93;;;11.70;99.90;;;;;;4163229;28;20037;-62
2022/10/13 04:28:48;;;;;;;20.27;13.77;;;11.70;99.90;;;;;;4163368;28;20115;-66
2022/10/13 04:30:49;;;;;;;31.33;16.20;;;11.70;99.90;;;;;;4179561;28;20033;-63
2022/10/13 04:32:50;;;;;;;27.67;17.67;;;11.60;99.90;;;;;;4176138;28;20041;-62
2022/10/13 04:34:51;;;;;;;25.10;15.73;;;11.60;99.90;;;;;;4161061;28;20034;-66
2022/10/13 04:36:52;;;;;;;30.17;17.57;;;11.60;99.90;;;;;;4176286;28;20040;-65
2022/10/13 04:38:54;;;;;;;25.50;17.17;;;11.50;99.90;;;;;;4178145;28;20053;-63
2022/10/13 04:40:55;;;;;;;34.20;16.97;;;11.40;99.90;;;;;;4169784;28;20086;-63
2022/10/13 04:42:57;;;;;;;29.20;17.73;;;11.40;99.90;;;;;;4162674;28;20026;-63
2022/10/13 04:44:58;;;;;;;31.67;18.03;;;11.30;99.90;;;;;;4174711;28;20570;-63
2022/10/13 04:47:00;;;;;;;31.27;18.27;;;11.20;99.90;;;;;;4178359;28;20045;-63
2022/10/13 04:49:01;;;;;;;33.57;18.50;;;11.20;99.90;;;;;;4178522;28;20086;-66
2022/10/13 04:51:14;;;;;;;32.80;18.80;;;11.20;99.90;;;;;;4174406;28;20477;-64
2022/10/13 04:53:15;;;;;;;34.67;19.50;;;11.20;99.90;;;;;;4190880;28;20447;-63
2022/10/13 04:55:17;;;;;;;33.37;19.70;;;11.20;99.90;;;;;;4176506;28;20044;-63
2022/10/13 04:57:18;;;;;;;34.50;20.50;;;11.20;99.90;;;;;;4178352;28;20045;-64
2022/10/13 04:59:20;;;;;;;34.83;20.00;;;11.20;99.90;;;;;;4176825;28;20041;-65
2022/10/13 05:01:24;;;;;;;39.43;20.07;;;11.30;99.90;;;;;;4178515;28;20045;-65
2022/10/13 05:03:25;;;;;;;34.63;20.40;;;11.30;99.90;;;;;;4181826;28;20071;-66
2022/10/13 05:05:26;;;;;;;37.47;21.40;;;11.30;99.90;;;;;;4195449;28;20050;-62
2022/10/13 05:07:28;;;;;;;34.47;19.27;;;11.30;99.90;;;;;;4194300;28;20032;-62
2022/10/13 05:09:30;;;;;;;36.63;21.07;;;11.30;99.90;;;;;;4195327;28;20419;-60
2022/10/13 05:11:32;;;;;;;34.53;19.53;;;11.30;99.90;;;;;;4194572;28;20426;-62
2022/10/13 05:13:33;;;;;;;31.87;19.67;;;11.40;99.90;;;;;;4195602;28;20622;-62
2022/10/13 05:15:37;;;;;;;34.70;19.87;;;11.40;99.90;;;;;;4194830;28;20028;-62
2022/10/13 05:17:38;;;;;;;30.50;18.00;;;11.40;99.90;;;;;;4193736;28;20096;-65
2022/10/13 05:19:39;;;;;;;32.40;18.87;;;11.30;99.90;;;;;;4194383;28;20086;-62
2022/10/13 05:21:41;;;;;;;29.67;17.70;;;11.30;99.90;;;;;;4194448;28;20029;-63
2022/10/13 05:23:44;;;;;;;33.43;18.60;;;11.30;99.90;;;;;;4194287;28;20054;-63
2022/10/13 05:25:45;;;;;;;30.20;19.03;;;11.20;99.90;;;;;;4175822;28;20053;-63
2022/10/13 05:27:46;;;;;;;31.37;19.03;;;11.20;99.90;;;;;;4195373;28;20063;-63
2022/10/13 05:29:47;;;;;;;33.20;19.13;;;11.30;99.90;;;;;;4194329;28;20025;-64
2022/10/13 05:31:48;;;;;;;30.00;16.97;;;11.30;99.90;;;;;;4195399;28;20054;-66
2022/10/13 05:33:51;;;;;;;32.73;16.80;;;11.30;99.90;;;;;;4194374;28;20032;-62
2022/10/13 05:35:52;;;;;;;27.63;16.40;;;11.30;99.90;;;;;;4194096;28;20036;-62
2022/10/13 05:37:53;;;;;;;28.97;16.40;;;11.30;99.90;;;;;;4194579;28;20028;-64
2022/10/13 05:39:54;;;;;;;25.67;16.27;;;11.30;99.90;;;;;;4195383;28;20029;-62
2022/10/13 05:41:55;;;;;;;33.37;18.10;;;11.30;99.90;;;;;;4193823;28;20029;-65
2022/10/13 05:43:59;;;;;;;29.87;16.97;;;11.40;99.90;;;;;;4194204;28;20048;-67
2022/10/13 05:46:00;;;;;;;32.97;15.80;;;11.40;99.90;;;;;;4194060;28;20024;-61
2022/10/13 05:48:01;;;;;;;29.87;16.67;;;11.40;99.90;;;;;;4194118;28;20028;-63
2022/10/13 05:50:03;;;;;;;24.97;15.33;;;11.40;99.90;;;;;;4175726;28;20084;-63
2022/10/13 05:52:08;;;;;;;26.97;16.53;;;11.40;99.90;;;;;;4193244;28;20044;-64
2022/10/13 05:54:19;;;;;;;27.97;18.00;;;11.40;99.90;;;;;;4194897;28;20437;-63
2022/10/13 05:56:25;;;;;;;21.98;15.13;;;11.50;99.90;;;;;;4193749;28;20082;-62
2022/10/13 05:58:26;;;;;;;24.27;14.97;;;11.50;99.90;;;;;;4193929;28;20037;-66
2022/10/13 06:00:28;;;;;;;26.47;15.90;;;11.50;99.90;;;;;;4193492;28;20101;-62
2022/10/13 06:02:52;;;;;;;27.30;15.40;;;11.60;99.90;;;;;;4194913;28;20134;-62
2022/10/13 06:04:56;;;;;;;24.77;15.17;;;11.70;99.90;;;;;;4176723;28;20057;-63
2022/10/13 06:06:57;;;;;;;25.67;15.80;;;11.70;99.90;;;;;;4178602;28;20500;-62
2022/10/13 06:09:00;;;;;;;27.90;15.07;;;11.70;99.90;;;;;;4177380;28;20561;-64
2022/10/13 06:11:02;;;;;;;24.93;14.80;;;11.80;99.90;;;;;;4178246;28;20059;-64
2022/10/13 06:13:04;;;;;;;21.33;13.10;;;11.80;99.90;;;;;;4176450;28;20037;-67
2022/10/13 06:15:05;;;;;;;21.50;13.77;;;11.90;99.90;;;;;;4160578;28;20060;-62
2022/10/13 06:17:07;;;;;;;23.30;12.93;;;11.90;99.90;;;;;;4176571;28;20090;-64
2022/10/13 06:19:08;;;;;;;22.60;12.67;;;11.90;99.90;;;;;;4177872;28;20488;-64
2022/10/13 06:21:09;;;;;;;21.27;13.33;;;12.00;99.90;;;;;;4177044;28;21110;-63
2022/10/13 06:23:10;;;;;;;19.27;12.37;;;12.00;99.90;;;;;;4177246;28;20424;-63
2022/10/13 06:25:11;;;;;;;23.60;13.60;;;12.00;99.90;;;;;;4177151;28;20044;-63
2022/10/13 06:27:13;;;;;;;22.97;13.20;;;12.10;99.90;;;;;;4177724;28;20092;-63
2022/10/13 06:29:14;;;;;;;21.83;14.30;;;12.10;99.90;;;;;;4176485;28;20025;-66
2022/10/13 06:31:15;;;;;;;23.83;15.13;;;12.20;99.90;;;;;;4176644;28;20025;-64
2022/10/13 06:33:16;;;;;;;26.43;15.33;;;12.20;99.90;;;;;;4177505;28;20515;-63
2022/10/13 06:35:17;;;;;;;34.07;18.40;;;12.20;99.90;;;;;;4176641;28;20075;-64
2022/10/13 06:37:18;;;;;;;34.77;17.17;;;12.20;99.90;;;;;;4178553;28;20087;-63
2022/10/13 06:39:19;;;;;;;31.50;17.43;;;12.20;99.90;;;;;;4158541;28;20072;-62
2022/10/13 06:41:21;;;;;;;35.13;18.23;;;12.20;99.90;;;;;;4177259;28;20033;-64
2022/10/13 06:43:22;;;;;;;34.93;19.50;;;12.20;99.90;;;;;;4176575;28;20527;-64
2022/10/13 06:45:23;;;;;;;30.60;17.43;;;12.20;99.90;;;;;;4177769;28;20075;-63
2022/10/13 06:47:24;;;;;;;30.03;17.07;;;12.20;99.90;;;;;;4176885;28;20481;-63
2022/10/13 06:49:25;;;;;;;35.10;19.97;;;12.20;99.90;;;;;;4177836;28;20614;-63
2022/10/13 06:51:26;;;;;;;33.20;19.33;;;12.20;99.90;;;;;;4176571;28;20028;-63
2022/10/13 06:53:28;;;;;;;42.20;22.30;;;12.20;99.90;;;;;;4177491;28;20879;-63
2022/10/13 06:55:29;;;;;;;44.60;24.33;;;12.20;99.90;;;;;;4176946;28;20485;-66
2022/10/13 06:57:30;;;;;;;68.67;34.87;;;12.20;99.90;;;;;;4177433;28;20083;-63
2022/10/13 06:59:31;;;;;;;61.67;34.43;;;12.20;99.90;;;;;;4177387;28;20095;-62
2022/10/13 07:01:32;;;;;;;66.03;39.53;;;12.20;99.90;;;;;;4176034;28;20075;-63
2022/10/13 07:03:34;;;;;;;73.50;40.43;;;12.20;99.90;;;;;;4177184;28;20087;-63
2022/10/13 07:05:35;;;;;;;65.50;38.03;;;12.10;99.90;;;;;;4176451;28;20041;-63
2022/10/13 07:07:36;;;;;;;64.67;36.20;;;12.20;99.90;;;;;;4177942;28;20083;-63
2022/10/13 07:09:38;;;;;;;59.80;32.00;;;12.20;99.90;;;;;;4175725;28;20452;-63
2022/10/13 07:11:39;;;;;;;58.33;29.53;;;12.30;99.90;;;;;;4177617;28;20021;-64
2022/10/13 07:13:41;;;;;;;56.13;28.57;;;12.30;99.90;;;;;;4175732;28;20087;-63
2022/10/13 07:15:42;;;;;;;44.27;24.47;;;12.30;99.90;;;;;;4177565;28;20083;-63
2022/10/13 07:17:43;;;;;;;42.10;23.93;;;12.40;99.90;;;;;;4158015;28;20516;-62
2022/10/13 07:19:47;;;;;;;42.07;22.23;;;12.40;99.90;;;;;;4176437;28;20095;-63
2022/10/13 07:21:48;;;;;;;43.40;22.13;;;12.40;99.90;;;;;;4176557;28;20086;-63
2022/10/13 07:23:49;;;;;;;36.23;21.10;;;12.50;99.90;;;;;;4176390;28;20045;-63
2022/10/13 07:25:51;;;;;;;39.43;21.70;;;12.50;99.90;;;;;;4176679;28;20090;-63
2022/10/13 07:27:52;;;;;;;35.90;21.60;;;12.50;99.90;;;;;;4176552;28;20041;-63
2022/10/13 07:29:53;;;;;;;34.97;19.90;;;12.60;99.90;;;;;;4177169;28;20103;-63
2022/10/13 07:31:54;;;;;;;37.33;20.93;;;12.60;99.90;;;;;;4176715;28;20078;-62
2022/10/13 07:33:58;;;;;;;50.83;34.83;;;12.60;99.90;;;;;;4176760;28;20048;-63
2022/10/13 07:35:59;;;;;;;61.03;39.63;;;12.60;99.90;;;;;;4179031;28;20464;-62
2022/10/13 07:38:00;;;;;;;57.47;39.93;;;12.60;99.90;;;;;;4180366;28;20110;-64
2022/10/13 07:40:03;;;;;;;71.50;43.53;;;12.60;99.90;;;;;;4179554;28;20036;-63
2022/10/13 07:42:04;;;;;;;64.37;39.47;;;12.60;99.90;;;;;;4180475;28;20029;-63
2022/10/13 07:44:05;;;;;;;57.17;33.90;;;12.70;99.90;;;;;;4179300;28;20493;-62
2022/10/13 07:46:07;;;;;;;39.27;23.53;;;12.70;99.90;;;;;;4179735;28;20040;-63
2022/10/13 07:48:08;;;;;;;38.97;21.20;;;12.70;99.90;;;;;;4178568;28;20037;-64
2022/10/13 07:50:10;;;;;;;40.57;19.67;;;12.70;99.90;;;;;;4180718;28;20033;-63
2022/10/13 07:52:11;;;;;;;36.67;17.13;;;12.70;99.90;;;;;;4179807;28;20099;-62
2022/10/13 07:54:13;;;;;;;38.50;16.20;;;12.60;99.90;;;;;;4180796;28;20025;-63
2022/10/13 07:56:15;;;;;;;30.10;16.80;;;12.60;99.90;;;;;;4179723;28;20550;-64
2022/10/13 07:58:16;;;;;;;21.53;14.60;;;12.60;99.90;;;;;;4179524;28;20037;-67
2022/10/13 08:00:17;;;;;;;23.03;15.00;;;12.60;99.90;;;;;;4179651;28;20075;-68
2022/10/13 08:02:19;;;;;;;23.17;15.57;;;12.50;99.90;;;;;;4179744;28;20473;-62
2022/10/13 08:04:20;;;;;;;27.17;15.57;;;12.50;99.90;;;;;;4179179;28;20566;-61
2022/10/13 08:06:21;;;;;;;27.47;16.20;;;12.50;99.90;;;;;;4179221;28;20029;-61
2022/10/13 08:08:23;;;;;;;24.73;16.07;;;12.50;99.90;;;;;;4180645;28;20087;-65
2022/10/13 08:10:24;;;;;;;28.80;17.23;;;12.50;99.90;;;;;;4178185;28;20111;-64
2022/10/13 08:12:25;;;;;;;31.50;17.70;;;12.50;99.90;;;;;;4179840;28;20102;-63
2022/10/13 08:14:26;;;;;;;26.80;16.40;;;12.50;99.90;;;;;;4178639;28;20041;-64
2022/10/13 08:16:28;;;;;;;28.37;16.67;;;12.50;99.90;;;;;;4179777;28;20086;-62
2022/10/13 08:18:30;;;;;;;25.03;16.23;;;12.40;99.90;;;;;;4178884;28;20029;-64
2022/10/13 08:20:31;;;;;;;27.47;16.93;;;12.40;99.90;;;;;;4180147;28;20037;-64
2022/10/13 08:22:33;;;;;;;30.37;16.70;;;12.50;99.90;;;;;;4178818;28;20094;-65
2022/10/13 08:24:35;;;;;;;27.70;17.33;;;12.40;99.90;;;;;;4178076;28;20094;-64
2022/10/13 08:26:37;;;;;;;22.97;15.67;;;12.40;99.90;;;;;;4177889;28;20052;-64
2022/10/13 08:28:38;;;;;;;26.13;15.73;;;12.40;99.90;;;;;;4178880;28;20107;-62
2022/10/13 08:30:39;;;;;;;30.47;17.97;;;12.40;99.90;;;;;;4178819;28;20151;-64
2022/10/13 08:32:40;;;;;;;32.97;19.07;;;12.40;99.90;;;;;;4178851;28;20048;-62
2022/10/13 08:34:41;;;;;;;27.23;17.50;;;12.40;99.90;;;;;;4179231;28;20083;-62
2022/10/13 08:36:43;;;;;;;30.47;17.23;;;12.40;99.90;;;;;;4178517;28;20075;-63
2022/10/13 08:38:44;;;;;;;26.50;16.80;;;12.50;99.90;;;;;;4179827;28;20021;-63
2022/10/13 08:40:48;;;;;;;27.33;16.73;;;12.50;99.90;;;;;;4178189;28;20028;-63
2022/10/13 08:42:49;;;;;;;28.27;17.07;;;12.50;99.90;;;;;;4179283;28;20211;-65
2022/10/13 08:44:57;;;;;;;29.47;18.07;;;12.50;99.90;;;;;;4178315;28;20088;-63
2022/10/13 08:47:09;;;;;;;29.27;17.00;;;12.60;99.90;;;;;;4178682;28;20083;-61
2022/10/13 08:49:11;;;;;;;26.70;17.13;;;12.60;99.90;;;;;;4177753;28;20454;-63
2022/10/13 08:51:15;;;;;;;31.93;18.63;;;12.60;99.90;;;;;;4179214;28;20037;-62
2022/10/13 08:53:31;;;;;;;29.60;18.10;;;12.60;99.90;;;;;;4178049;28;20033;-64
2022/10/13 08:55:42;;;;;;;29.33;18.17;;;12.70;99.90;;;;;;4179074;28;20941;-62
2022/10/13 08:57:44;;;;;;;34.57;17.37;;;12.80;99.90;;;;;;4178176;28;20087;-63
2022/10/13 08:59:46;;;;;;;26.53;16.40;;;12.80;99.90;;;;;;4179146;28;20032;-64
2022/10/13 09:01:51;;;;;;;25.43;15.97;;;12.80;99.90;;;;;;4178357;28;20029;-64
2022/10/13 09:04:07;;;;;;;29.77;16.73;;;12.90;99.90;;;;;;4178334;28;20103;-66
2022/10/13 09:06:17;;;;;;;26.13;15.90;;;12.90;99.90;;;;;;4159307;28;20037;-65
2022/10/13 09:08:19;;;;;;;26.25;16.27;;;12.90;99.90;;;;;;4178704;28;20041;-62
2022/10/13 09:10:21;;;;;;;26.23;17.87;;;13.00;99.90;;;;;;4178110;28;20873;-63
2022/10/13 09:12:23;;;;;;;25.77;16.30;;;13.00;99.90;;;;;;4178313;28;20041;-64
2022/10/13 09:14:28;;;;;;;25.77;17.03;;;13.00;99.90;;;;;;4176984;28;20045;-66
2022/10/13 09:16:38;;;;;;;27.27;16.83;;;13.00;99.90;;;;;;4178659;28;20032;-63
2022/10/13 09:18:39;;;;;;;29.77;17.93;;;13.10;99.90;;;;;;4177914;28;20017;-64
2022/10/13 09:20:40;;;;;;;30.07;16.70;;;13.10;99.90;;;;;;4177961;28;20038;-63
2022/10/13 09:22:42;;;;;;;28.20;15.87;;;13.10;99.90;;;;;;4178143;28;20083;-64
2022/10/13 09:24:43;;;;;;;27.13;15.57;;;13.20;99.90;;;;;;4160108;28;20038;-63
2022/10/13 09:26:47;;;;;;;21.67;14.60;;;13.20;99.90;;;;;;4177425;28;20033;-63
2022/10/13 09:28:49;;;;;;;21.40;13.80;;;13.30;99.90;;;;;;4177665;28;20476;-63
2022/10/13 09:31:24;;;;;;;34.67;16.50;;;13.40;99.90;;;;;;4178546;28;20029;-63
2022/10/13 09:33:25;;;;;;;22.57;14.30;;;13.30;99.90;;;;;;4149143;28;20398;-68
2022/10/13 09:35:26;;;;;;;24.20;15.47;;;13.30;99.90;;;;;;4178027;28;20041;-65
2022/10/13 09:37:27;;;;;;;25.07;15.67;;;13.30;99.90;;;;;;4176954;28;20048;-63
2022/10/13 09:39:30;;;;;;;22.67;15.17;;;13.30;99.90;;;;;;4178572;28;20024;-65
2022/10/13 09:41:32;;;;;;;26.20;16.40;;;13.30;99.90;;;;;;4176490;28;20118;-63
2022/10/13 09:43:45;;;;;;;23.63;15.10;;;13.30;99.90;;;;;;4177653;28;20443;-64
2022/10/13 09:45:47;;;;;;;20.43;13.87;;;13.40;99.90;;;;;;4176578;28;20052;-64
2022/10/13 09:47:51;;;;;;;23.83;14.37;;;13.40;99.90;;;;;;4178321;28;20091;-62
2022/10/13 09:50:16;;;;;;;19.17;13.37;;;13.50;99.90;;;;;;4176553;28;20079;-62
2022/10/13 09:52:20;;;;;;;22.60;13.23;;;13.50;99.90;;;;;;4178196;28;20021;-62
2022/10/13 09:54:42;;;;;;;23.60;14.53;;;13.60;99.90;;;;;;4177235;28;20025;-63
2022/10/13 09:56:49;;;;;;;26.77;14.33;;;13.70;99.90;;;;;;4159647;28;20084;-65
2022/10/13 09:59:09;;;;;;;19.10;12.63;;;13.80;99.90;;;;;;4176405;28;20071;-66
2022/10/13 10:01:19;;;;;;;19.90;13.47;;;13.90;99.90;;;;;;4178219;28;20112;-64
2022/10/13 10:03:31;;;;;;;19.15;12.50;;;13.90;99.90;;;;;;4176965;28;20511;-66
2022/10/13 10:05:41;;;;;;;20.35;13.73;;;14.00;99.90;;;;;;4177206;28;20036;-64
2022/10/13 10:07:42;;;;;;;28.88;14.40;;;14.10;99.90;;;;;;4177060;28;20078;-64
2022/10/13 10:10:13;;;;;;;23.73;12.60;;;14.20;99.90;;;;;;4177282;28;20163;-66
2022/10/13 10:12:19;;;;;;;16.75;11.43;;;14.30;99.90;;;;;;4169068;28;20489;-67
2022/10/13 10:14:26;;;;;;;21.05;12.43;;;14.20;99.90;;;;;;4177848;28;20033;-66
2022/10/13 10:16:42;;;;;;;18.10;12.10;;;14.20;99.90;;;;;;4176326;28;20430;-63
2022/10/13 10:19:01;;;;;;;18.90;12.23;;;14.40;99.90;;;;;;4177756;28;20078;-63
2022/10/13 10:21:25;;;;;;;19.45;11.90;;;14.70;99.90;;;;;;4176220;28;20091;-64
2022/10/13 10:23:47;;;;;;;16.80;11.10;;;14.90;99.90;;;;;;4177048;28;20029;-66
2022/10/13 10:25:56;;;;;;;26.17;12.55;;;14.90;99.90;;;;;;4177695;28;20025;-68
2022/10/13 10:28:35;;;;;;;20.95;11.45;;;14.90;99.90;;;;;;4177022;28;20457;-64
2022/10/13 10:30:42;;;;;;;15.57;10.93;;;15.00;99.90;;;;;;4177730;28;20354;-66
2022/10/13 10:32:58;;;;;;;13.77;10.43;;;15.10;99.90;;;;;;4176295;28;20033;-65